• Join FlightAware (Why Join?)
  • Login
  • US Flag 
 
12:49AM EST


 

Airport Tracker/Info


-or-


 

Live Flight TrackerFlight Track Log ✈ ASQ5941 ✈ 13-Sep-2013 ✈ KORD - KAVP

Flight Track Log - Related Links

Times and Time Zones

All times are in EDT time to prevent confusion due to time zone crossing. See the ASQ5941 flight status page for this flight to view local times or setup timezone preferences in your user account.

Time Position Orientation Groundspeed Altitude Reporting Facility
EDT Latitude Longitude Course Direction KTS MPH feet Rate Location/Type
03:08PM 42.0333 -87.8500 74° East 173 199 3,200  Level Chicago TRACON
03:10PM 42.0750 -87.7486 61° Northeast 197 227 5,900 1,260 Climbing Chicago Center
03:11PM 42.0828 -87.6500 84° East 256 295 6,600 1,380 Climbing Chicago Center
03:12PM 41.9795 -87.1565 90° East  Level Estimated
03:12PM 42.0817 -87.5533 91° East 262 302 8,800  Level Chicago Center
03:13PM 41.9785 -87.0065 85° East  Level Estimated
03:13PM 42.0897 -87.4481 84° East 282 325 10,300  Level Chicago Center
03:14PM 42.0085 -86.8654 74° East  Level FlightAware Approximate
03:14PM 42.0969 -87.3314 85° East 306 352 11,300  Level Chicago Center
03:15PM 42.1072 -87.1744 85° East 342 394 12,700 1,320 Climbing Chicago Center
03:16PM 42.1144 -87.0417 86° East 354 407 14,100 1,260 Climbing Chicago Center
03:17PM 42.1194 -86.9069 87° East 359 413 15,400 1,260 Climbing Chicago Center
03:18PM 42.1244 -86.7694 87° East 366 421 16,800 1,200 Climbing Chicago Center
03:19PM 42.1275 -86.6294 88° East 370 426 18,000 1,200 Climbing Chicago Center
03:20PM 42.1325 -86.4917 87° East 370 426 19,400 1,440 Climbing Chicago Center
03:21PM 42.1383 -86.3250 87° East 372 428 21,000 1,260 Climbing Chicago Center
03:22PM 42.1414 -86.1839 88° East 375 432 22,100 960 Climbing Chicago Center
03:23PM 42.1431 -86.0361 89° East 391 450 23,100 900 Climbing Chicago Center
03:24PM 42.1422 -85.8972 90° East 401 461 24,000 960 Climbing Chicago Center
03:25PM 42.1411 -85.7142 90° East 409 471 25,200 1,020 Climbing Chicago Center
03:27PM 42.1389 -85.5597 91° East 414 476 26,200 900 Climbing Chicago Center
03:28PM 42.1372 -85.4042 91° East 417 480 27,100 900 Climbing Chicago Center
03:29PM 42.1367 -85.2497 90° East 417 480 28,100 960 Climbing Chicago Center
03:30PM 42.1344 -85.0925 91° East 421 484 29,100 960 Climbing Chicago Center
03:31PM 42.1328 -84.9092 91° East 411 473 30,200 960 Climbing Chicago Center
03:32PM 42.1314 -84.7547 91° East 413 475 31,200 960 Climbing Chicago Center
03:33PM 42.1303 -84.5978 90° East 418 481 32,200 900 Climbing Chicago Center
03:34PM 42.1289 -84.4408 91° East 420 483 33,100 900 Climbing Chicago Center
03:34PM 42.1294 -84.3492 90° East 421 484 33,700 540 Climbing Cleveland Center
03:35PM 42.1208 -84.1694 94° East 427 491 34,000 120 Climbing Cleveland Center
03:36PM 42.1111 -84.0008 94° East 440 506 34,000  Level Cleveland Center
03:37PM 42.0975 -83.8239 96° East 453 521 34,000  Level Cleveland Center
03:38PM 42.0858 -83.6497 95° East 464 534 34,000 60 Level Cleveland Center
03:39PM 42.0756 -83.4758 94° East 470 541 34,200 480 Climbing Cleveland Center
03:40PM 42.0633 -83.3019 95° East 462 532 35,000 360 Climbing Cleveland Center
03:41PM 42.0503 -83.1447 96° East 462 532 35,000  Level Cleveland Center
03:42PM 42.0414 -82.9736 94° East 462 532 35,000  Level Cleveland Center
03:43PM 42.0283 -82.7972 96° East 467 537 35,000  Level Cleveland Center
03:44PM 42.0147 -82.6206 96° East 467 537 35,000  Level Cleveland Center
03:45PM 42.0011 -82.4497 96° East 467 537 35,000  Level Cleveland Center
03:46PM 41.9850 -82.2758 97° East 467 537 35,000  Level Cleveland Center
03:47PM 41.9750 -82.1025 94° East 467 537 35,000  Level Cleveland Center
03:48PM 41.9586 -81.9094 96° East 467 537 35,000  Level Cleveland Center
03:49PM 41.9436 -81.7389 97° East 467 537 35,000  Level Cleveland Center
03:50PM 41.9286 -81.5628 96° East 467 537 35,000  Level Cleveland Center
03:51PM 41.9156 -81.3839 96° East 467 537 35,000  Level Cleveland Center
03:52PM 41.8978 -81.2053 98° East 472 543 35,000  Level Cleveland Center
03:53PM 41.8819 -81.0267 97° East 486 559 35,000  Level Cleveland Center
03:54PM 41.8678 -80.8647 97° East 486 559 35,000  Level Cleveland Center
03:55PM 41.8494 -80.6864 98° East 486 559 35,000  Level Cleveland Center
03:56PM 41.8350 -80.5053 96° East 481 554 35,000  Level Cleveland Center
03:57PM 41.8181 -80.3297 97° East 481 554 35,000  Level Cleveland Center
03:58PM 41.8008 -80.1542 97° East 482 555 35,000  Level Cleveland Center
03:59PM 41.7769 -79.9594 99° East 482 555 35,000  Level Cleveland Center
04:00PM 41.7528 -79.7789 100° East 482 555 35,000 -120 Level Cleveland Center
04:01PM 41.7328 -79.6036 99° East 484 557 34,800 -600 Descending Cleveland Center
04:02PM 41.7103 -79.4289 100° East 484 557 33,900 -900 Descending Cleveland Center
04:03PM 41.6897 -79.2597 99° East 472 543 33,000 -960 Descending Cleveland Center
04:04PM 41.6667 -79.0906 100° East 466 536 32,000 -1,200 Descending Cleveland Center
04:05PM 41.6436 -78.9244 100° East 466 536 30,700 -1,680 Descending Cleveland Center
04:06PM 41.6225 -78.7583 100° East 466 536 28,700 -1,800 Descending Cleveland Center
04:08PM 41.5903 -78.5072 100° East 455 524 26,000 -1,620 Descending New York Center
04:09PM 41.5692 -78.3494 100° East 444 511 24,500 -1,500 Descending New York Center
04:10PM 41.5458 -78.1914 101° East 439 505 23,100 -780 Descending New York Center
04:11PM 41.5189 -78.0194 102° East 440 506 23,000 -60 Descending New York Center
04:12PM 41.5036 -77.8597 97° East 434 499 23,000  Level New York Center
04:13PM 41.4947 -77.6925 94° East 439 505 23,000 -120 Level New York Center
04:14PM 41.4811 -77.5278 96° East 439 505 22,800 -900 Descending New York Center
04:15PM 41.4675 -77.3631 96° East 450 518 21,200 -1,620 Descending New York Center
04:16PM 41.4383 -77.2106 104° East 436 502 19,600 -1,680 Descending New York Center
04:17PM 41.3942 -77.0653 112° Southeast 424 488 17,900 -1,260 Descending New York Center
04:18PM 41.3494 -76.9258 113° Southeast 416 479 17,100 -600 Descending New York Center
04:19PM 41.3047 -76.7808 112° Southeast 416 479 16,800 -1,140 Descending New York Center
04:20PM 41.3050 -76.6508 90° East 388 447 14,900 -2,100 Descending New York Center
04:21PM 41.3097 -76.5133 87° East 362 417 12,600 -2,100 Descending New York Center
04:22PM 41.3131 -76.3975 88° East 317 365 10,700 -1,680 Descending New York Center
04:23PM 41.3181 -76.2931 86° East 290 334 9,300 -1,560 Descending New York Center
04:24PM 41.3219 -76.2047 87° East 274 315 7,600 -1,800 Descending New York Center
04:25PM 41.2833 -76.1383 128° Southeast 239 275 5,700 -1,740 Descending New York Center
04:26PM 41.2144 -76.0969 156° South 232 267 4,200 -900 Descending New York Center
04:27PM 41.1556 -76.0647 158° South 232 267 4,000 -120 Descending New York Center
04:28PM 41.1356 -75.9997 112° Southeast 192 221 4,000  Level New York Center
04:29PM 41.1450 -75.9261 80° East 196 226 4,000  Level New York Center
04:30PM 41.1831 -75.8656 50° Northeast 189 217 4,000 -300 Level New York Center
04:31PM 41.2264 -75.8247 35° Northeast 184 212 3,500 -660 Descending New York Center
04:32PM 41.2567 -75.7967 35° Northeast 173 199 2,700 -840 Descending New York Center
04:33PM 41.2892 -75.7686 33° Northeast 148 170 1,900 -660 Descending New York Center
04:34PM 41.3258 -75.7383 32° Northeast 140 161 1,400 3,540 Descending New York Center
04:35PM 41.3583 -75.7131 30° Northeast 140 161 9,000 7,560 Climbing New York Center
04:37PM 41.3333 -75.7167 217° Southwest  Level FlightAware Approximate
04:44PM 41.3385 -75.7234 217° Southwest  Level Estimated
04:45PM 41.3333 -75.7167 217° Southwest  Level FlightAware Approximate
04:46PM 41.3385 -75.7234 217° Southwest  Level Estimated
04:47PM 41.3333 -75.7167 217° Southwest  Level FlightAware Approximate
04:48PM 41.3385 -75.7234 217° Southwest  Level Estimated
04:49PM 41.3333 -75.7167 217° Southwest  Level FlightAware Approximate